createdAt,value
2019-02-06T00:00:40.700Z,80.85
2019-02-06T00:03:14.046Z,80.96
2019-02-06T00:05:45.459Z,81.31
2019-02-06T00:08:16.882Z,81.65
2019-02-06T00:10:48.267Z,81.14
2019-02-06T00:13:19.636Z,81.01
2019-02-06T00:15:51.523Z,82.03
2019-02-06T00:18:22.998Z,82.03
2019-02-06T00:20:54.474Z,81.57
2019-02-06T00:23:25.713Z,81.69
2019-02-06T00:25:57.106Z,82.65
2019-02-06T00:28:28.391Z,83.01
2019-02-06T00:31:01.168Z,82.84
2019-02-06T00:33:32.607Z,82.81
2019-02-06T00:36:04.340Z,82.26
2019-02-06T00:38:35.800Z,81.35
2019-02-06T00:41:07.052Z,81.86
2019-02-06T00:43:38.353Z,81.61
2019-02-06T00:46:09.750Z,82.12
2019-02-06T00:48:41.192Z,82.00
2019-02-06T00:51:12.528Z,81.82
2019-02-06T00:53:43.822Z,81.35
2019-02-06T00:56:15.082Z,81.08
2019-02-06T00:58:46.446Z,80.65
2019-02-06T01:01:17.790Z,80.32
2019-02-06T01:03:49.174Z,79.41
2019-02-06T01:06:20.473Z,79.77
2019-02-06T01:08:53.074Z,80.95
2019-02-06T01:11:24.473Z,81.25
2019-02-06T01:13:56.784Z,81.48
2019-02-06T01:16:28.108Z,80.81
2019-02-06T01:18:59.421Z,81.39
2019-02-06T01:21:30.972Z,80.74
2019-02-06T01:24:02.356Z,81.00
2019-02-06T01:26:33.677Z,81.42
2019-02-06T01:29:05.188Z,81.40
2019-02-06T01:31:37.633Z,81.06
2019-02-06T01:34:09.357Z,81.44
2019-02-06T01:36:40.753Z,82.34
2019-02-06T01:39:13.137Z,81.34
2019-02-06T01:41:44.466Z,81.29
2019-02-06T01:44:15.762Z,81.81
2019-02-06T01:46:47.393Z,82.33
2019-02-06T01:49:18.702Z,82.84
2019-02-06T01:51:50.022Z,82.48
2019-02-06T01:54:21.415Z,82.36
2019-02-06T01:56:52.738Z,82.62
2019-02-06T01:59:24.033Z,83.20
2019-02-06T02:01:55.293Z,82.60
2019-02-06T02:04:26.679Z,81.91
2019-02-06T02:06:58.064Z,81.57
2019-02-06T02:09:29.551Z,80.46
2019-02-06T02:12:00.802Z,80.89
2019-02-06T02:14:32.337Z,80.78
2019-02-06T02:17:03.788Z,79.53
2019-02-06T02:19:35.178Z,80.57
2019-02-06T02:22:06.715Z,80.76
2019-02-06T02:24:38.043Z,80.36
2019-02-06T02:27:09.615Z,80.59
2019-02-06T02:29:40.930Z,80.99
2019-02-06T02:32:13.242Z,81.00
2019-02-06T02:34:44.546Z,81.47
2019-02-06T02:37:15.917Z,82.65
2019-02-06T02:39:47.487Z,83.21
2019-02-06T02:42:18.846Z,83.74
2019-02-06T02:44:50.146Z,84.17
2019-02-06T02:47:21.468Z,84.29
2019-02-06T02:49:52.729Z,84.34
2019-02-06T02:52:24.407Z,83.40
2019-02-06T02:54:55.692Z,83.05
2019-02-06T02:57:27.103Z,82.98
2019-02-06T02:59:58.424Z,83.43
2019-02-06T03:02:31.422Z,82.84
2019-02-06T03:05:03.195Z,82.87
2019-02-06T03:07:34.709Z,82.95
2019-02-06T03:10:10.751Z,83.40
2019-02-06T03:12:42.197Z,82.21
2019-02-06T03:15:13.652Z,81.32
2019-02-06T03:17:45.223Z,79.97
2019-02-06T03:20:16.636Z,81.05
2019-02-06T03:22:48.082Z,81.89
2019-02-06T03:25:19.330Z,81.92
2019-02-06T03:27:50.693Z,81.69
2019-02-06T03:30:22.506Z,82.42
2019-02-06T03:32:53.892Z,82.92
2019-02-06T03:35:25.210Z,83.18
2019-02-06T03:37:56.685Z,83.47
2019-02-06T03:40:28.055Z,83.65
2019-02-06T03:42:59.687Z,82.90
2019-02-06T03:45:31.590Z,82.22
2019-02-06T03:48:03.457Z,81.95
2019-02-06T03:50:34.856Z,82.46
2019-02-06T03:53:06.991Z,82.52
2019-02-06T03:55:38.248Z,83.40
2019-02-06T03:58:09.716Z,83.50
2019-02-06T04:00:42.880Z,83.52
2019-02-06T04:03:14.389Z,83.70
2019-02-06T04:05:45.662Z,83.15
2019-02-06T04:08:17.055Z,83.39
2019-02-06T04:10:48.386Z,83.73
2019-02-06T04:13:19.630Z,83.83
2019-02-06T04:15:51.496Z,83.71
2019-02-06T04:18:22.884Z,83.26
2019-02-06T04:20:54.210Z,83.38
2019-02-06T04:23:25.823Z,84.15
2019-02-06T04:25:57.234Z,83.98
2019-02-06T04:28:28.526Z,84.33
2019-02-06T04:31:01.001Z,84.42
2019-02-06T04:33:32.603Z,84.76
2019-02-06T04:36:04.116Z,84.68
2019-02-06T04:38:35.589Z,84.65
2019-02-06T04:41:07.028Z,84.76
2019-02-06T04:43:38.461Z,85.04
2019-02-06T04:46:10.083Z,84.97
2019-02-06T04:48:41.483Z,84.19
2019-02-06T04:51:13.307Z,84.42
2019-02-06T04:53:45.071Z,84.85
2019-02-06T04:56:16.626Z,85.00
2019-02-06T04:58:50.156Z,84.81
2019-02-06T05:01:21.613Z,84.73
2019-02-06T05:03:53.140Z,84.90
2019-02-06T05:06:24.603Z,84.67
2019-02-06T05:08:56.100Z,84.86
2019-02-06T05:11:27.391Z,85.13
2019-02-06T05:14:01.435Z,85.30
2019-02-06T05:16:32.848Z,85.36
2019-02-06T05:19:04.390Z,85.61
2019-02-06T05:21:35.843Z,85.83
2019-02-06T05:24:07.347Z,85.95
2019-02-06T05:26:39.087Z,85.87
2019-02-06T05:29:10.563Z,85.57
2019-02-06T05:31:41.814Z,86.01
2019-02-06T05:34:14.168Z,86.37
2019-02-06T05:36:45.424Z,86.32
2019-02-06T05:39:17.193Z,86.39
2019-02-06T05:41:48.524Z,86.59
2019-02-06T05:44:19.815Z,85.86
2019-02-06T05:46:51.261Z,85.65
2019-02-06T05:49:22.838Z,85.63
2019-02-06T05:52:01.966Z,85.82
2019-02-06T05:54:33.267Z,86.01
2019-02-06T05:57:04.732Z,86.33
2019-02-06T05:59:36.055Z,86.48
2019-02-06T06:02:07.496Z,86.68
2019-02-06T06:04:38.884Z,86.80
2019-02-06T06:07:10.472Z,86.91
2019-02-06T06:09:41.800Z,87.02
2019-02-06T06:12:13.156Z,86.87
2019-02-06T06:14:44.419Z,86.62
2019-02-06T06:17:15.770Z,86.75
2019-02-06T06:19:47.298Z,86.76
2019-02-06T06:22:18.675Z,86.81
2019-02-06T06:24:49.970Z,86.67
2019-02-06T06:27:21.274Z,86.69
2019-02-06T06:29:52.586Z,86.15
2019-02-06T06:32:24.072Z,86.10
2019-02-06T06:34:55.387Z,86.39
2019-02-06T06:37:26.698Z,86.33
2019-02-06T06:39:58.034Z,86.46
2019-02-06T06:42:29.321Z,86.58
2019-02-06T06:45:00.575Z,86.65
2019-02-06T06:47:31.873Z,86.90
2019-02-06T06:50:03.269Z,87.08
2019-02-06T06:52:34.570Z,87.14
2019-02-06T06:55:10.253Z,86.94
2019-02-06T06:57:42.805Z,87.16
2019-02-06T07:00:25.435Z,87.36
2019-02-06T07:03:10.934Z,87.45
2019-02-06T07:05:42.448Z,87.60
2019-02-06T07:08:13.946Z,87.58
2019-02-06T07:10:45.248Z,87.56
2019-02-06T07:13:17.705Z,87.38
2019-02-06T07:15:49.201Z,87.29
2019-02-06T07:18:20.501Z,87.24
2019-02-06T07:20:52.144Z,87.14
2019-02-06T07:23:23.677Z,87.23
2019-02-06T07:25:55.745Z,87.46
2019-02-06T07:28:28.483Z,87.39
2019-02-06T07:30:59.905Z,87.47
2019-02-06T07:33:31.378Z,87.38
2019-02-06T07:36:03.970Z,87.28
2019-02-06T07:38:35.301Z,87.38
2019-02-06T07:41:06.669Z,87.32
2019-02-06T07:43:38.140Z,87.28
2019-02-06T07:46:09.590Z,87.41
2019-02-06T07:48:40.983Z,87.46
2019-02-06T07:51:12.269Z,87.44
2019-02-06T07:53:44.541Z,87.42
2019-02-06T07:56:15.867Z,87.54
2019-02-06T07:58:50.566Z,87.70
2019-02-06T08:01:20.548Z,87.96
2019-02-06T08:03:53.172Z,88.26
2019-02-06T08:06:24.534Z,88.58
2019-02-06T08:08:57.612Z,88.69
2019-02-06T08:11:29.249Z,88.79
2019-02-06T08:14:00.575Z,88.91
2019-02-06T08:16:31.966Z,88.86
2019-02-06T08:19:03.615Z,88.91
2019-02-06T08:21:35.138Z,88.89
2019-02-06T08:24:06.801Z,88.83
2019-02-06T08:26:38.350Z,88.67
2019-02-06T08:29:09.785Z,88.52
2019-02-06T08:31:41.173Z,88.41
2019-02-06T08:34:12.459Z,88.37
2019-02-06T08:36:44.140Z,88.15
2019-02-06T08:39:15.601Z,88.33
2019-02-06T08:41:47.075Z,88.12
2019-02-06T08:44:18.534Z,88.18
2019-02-06T08:46:49.963Z,87.93
2019-02-06T08:49:21.709Z,88.02
2019-02-06T08:51:53.058Z,87.91
2019-02-06T08:54:24.354Z,87.98
2019-02-06T08:56:55.866Z,87.90
2019-02-06T08:59:27.196Z,87.99
2019-02-06T09:01:58.502Z,87.98
2019-02-06T09:04:29.750Z,87.81
2019-02-06T09:07:01.117Z,87.76
2019-02-06T09:09:32.577Z,87.75
2019-02-06T09:12:04.046Z,87.58
2019-02-06T09:14:35.438Z,87.54
2019-02-06T09:17:06.916Z,87.28
2019-02-06T09:19:38.163Z,87.43
2019-02-06T09:22:09.594Z,87.51
2019-02-06T09:24:40.997Z,87.20
2019-02-06T09:27:12.490Z,87.22
2019-02-06T09:29:44.001Z,87.46
2019-02-06T09:32:15.451Z,87.06
2019-02-06T09:34:46.702Z,87.31
2019-02-06T09:37:18.072Z,87.14
2019-02-06T09:39:49.317Z,87.05
2019-02-06T09:42:22.011Z,86.72
2019-02-06T09:44:53.262Z,86.92
2019-02-06T09:47:24.626Z,86.40
2019-02-06T09:49:55.880Z,86.52
2019-02-06T09:52:28.904Z,86.53
2019-02-06T09:55:00.331Z,86.33
2019-02-06T09:57:35.471Z,86.35
2019-02-06T10:00:11.066Z,86.13
2019-02-06T10:02:42.452Z,86.00
2019-02-06T10:05:14.363Z,85.97
2019-02-06T10:07:47.013Z,85.23
2019-02-06T10:10:21.633Z,85.38
2019-02-06T10:12:53.068Z,85.83
2019-02-06T10:15:30.864Z,85.57
2019-02-06T10:18:02.748Z,85.19
2019-02-06T10:20:44.694Z,85.15
2019-02-06T10:23:16.208Z,84.34
2019-02-06T10:25:47.668Z,84.03
2019-02-06T10:28:19.150Z,83.72
2019-02-06T10:31:00.101Z,82.86
2019-02-06T10:33:37.237Z,83.28
2019-02-06T10:36:08.667Z,82.84
2019-02-06T10:38:40.154Z,82.89
2019-02-06T10:41:11.458Z,81.75
2019-02-06T10:43:42.819Z,82.86
2019-02-06T10:46:14.259Z,82.95
2019-02-06T10:48:45.647Z,81.86
2019-02-06T10:51:16.947Z,81.50
2019-02-06T10:53:48.335Z,81.29
2019-02-06T10:56:19.699Z,81.92
2019-02-06T10:58:52.260Z,80.39
2019-02-06T11:01:23.657Z,80.48
2019-02-06T11:03:55.080Z,79.73
2019-02-06T11:06:26.915Z,80.34
2019-02-06T11:08:58.349Z,79.46
2019-02-06T11:11:29.659Z,78.69
2019-02-06T11:14:01.081Z,78.55
2019-02-06T11:16:32.431Z,79.08
2019-02-06T11:19:04.216Z,77.95
2019-02-06T11:21:35.644Z,77.02
2019-02-06T11:24:07.120Z,76.53
2019-02-06T11:26:38.488Z,76.89
2019-02-06T11:29:10.014Z,78.21
2019-02-06T11:31:41.726Z,75.69
2019-02-06T11:34:13.026Z,75.92
2019-02-06T11:36:45.378Z,74.85
2019-02-06T11:39:19.253Z,74.55
2019-02-06T11:41:50.749Z,75.07
2019-02-06T11:44:22.418Z,73.87
2019-02-06T11:46:53.798Z,74.11
2019-02-06T11:49:29.970Z,73.64
2019-02-06T11:52:01.378Z,72.94
2019-02-06T11:54:32.689Z,73.09
2019-02-06T11:57:04.305Z,71.95
2019-02-06T11:59:35.676Z,71.36
2019-02-06T12:02:07.051Z,70.84
2019-02-06T12:04:39.364Z,71.08
2019-02-06T12:07:10.651Z,71.20
2019-02-06T12:09:42.406Z,70.81
2019-02-06T12:12:13.709Z,70.29
2019-02-06T12:14:45.270Z,69.40
2019-02-06T12:17:16.695Z,69.54
2019-02-06T12:19:48.220Z,68.59
2019-02-06T12:22:19.875Z,68.33
2019-02-06T12:24:51.237Z,67.89
2019-02-06T12:27:22.473Z,67.75
2019-02-06T12:29:53.810Z,66.13
2019-02-06T12:32:25.167Z,67.94
2019-02-06T12:34:56.587Z,66.68
2019-02-06T12:37:27.833Z,66.45
2019-02-06T12:39:59.359Z,67.08
2019-02-06T12:42:30.733Z,66.99
2019-02-06T12:45:02.093Z,66.85
2019-02-06T12:47:33.596Z,67.30
2019-02-06T12:50:09.751Z,67.33
2019-02-06T12:52:41.214Z,66.64
2019-02-06T12:55:22.988Z,66.72
2019-02-06T12:57:54.425Z,66.11
2019-02-06T13:00:32.088Z,66.29
2019-02-06T13:03:03.616Z,64.80
2019-02-06T13:05:35.252Z,64.37
2019-02-06T13:08:07.568Z,64.20
2019-02-06T13:10:39.189Z,63.01
2019-02-06T13:13:13.670Z,63.59
2019-02-06T13:15:47.285Z,64.18
2019-02-06T13:18:24.198Z,62.64
2019-02-06T13:20:55.313Z,63.25
2019-02-06T13:23:26.752Z,62.34
2019-02-06T13:25:58.771Z,61.73
2019-02-06T13:28:30.055Z,62.55
2019-02-06T13:31:01.520Z,62.15
2019-02-06T13:33:32.973Z,62.15
2019-02-06T13:36:07.705Z,63.41
2019-02-06T13:38:39.352Z,62.03
2019-02-06T13:41:12.440Z,62.28
2019-02-06T13:43:43.824Z,61.68
2019-02-06T13:46:16.094Z,61.96
2019-02-06T13:48:50.561Z,61.96
2019-02-06T13:51:22.907Z,61.48
2019-02-06T13:53:54.231Z,61.07
2019-02-06T13:56:31.848Z,60.66
2019-02-06T13:59:03.254Z,60.90
2019-02-06T14:01:35.087Z,60.66
2019-02-06T14:04:06.533Z,60.67
2019-02-06T14:06:37.841Z,60.34
2019-02-06T14:09:21.657Z,61.30
2019-02-06T14:11:44.387Z,60.98
2019-02-06T14:14:16.551Z,59.62
2019-02-06T14:16:47.906Z,59.58
2019-02-06T14:19:19.407Z,60.27
2019-02-06T14:21:51.109Z,59.15
2019-02-06T14:24:27.175Z,58.76
2019-02-06T14:27:22.640Z,58.10
2019-02-06T14:30:27.876Z,60.24
2019-02-06T14:33:28.696Z,58.77
2019-02-06T14:36:18.217Z,59.04
2019-02-06T14:39:00.409Z,58.35
2019-02-06T14:41:43.868Z,58.16
2019-02-06T14:44:31.651Z,58.01
2019-02-06T14:47:22.813Z,58.78
2019-02-06T14:50:17.810Z,57.81
2019-02-06T14:53:20.288Z,57.45
2019-02-06T14:56:13.869Z,58.05
2019-02-06T14:59:19.016Z,57.73
2019-02-06T15:02:36.916Z,56.58
2019-02-06T15:05:27.621Z,57.01
2019-02-06T15:08:24.784Z,56.76
2019-02-06T15:11:19.397Z,56.63
2019-02-06T15:13:55.489Z,56.51
2019-02-06T15:16:50.742Z,56.77
2019-02-06T15:19:38.848Z,56.50
2019-02-06T15:22:23.671Z,56.32
2019-02-06T15:25:08.555Z,57.20
2019-02-06T15:28:24.282Z,56.86
2019-02-06T15:31:22.681Z,57.45
2019-02-06T15:34:15.608Z,57.80
2019-02-06T15:37:00.916Z,57.92
2019-02-06T15:40:13.320Z,58.13
2019-02-06T15:43:00.120Z,58.87
2019-02-06T15:49:17.053Z,58.99
2019-02-06T15:51:53.031Z,59.57
2019-02-06T15:55:11.561Z,59.20
2019-02-06T15:58:07.269Z,59.85
2019-02-06T16:00:47.283Z,60.32
2019-02-06T16:04:16.245Z,60.37
2019-02-06T16:07:29.711Z,60.83
2019-02-06T16:10:23.843Z,60.93
2019-02-06T16:13:20.609Z,61.30
2019-02-06T16:16:23.638Z,61.28
2019-02-06T16:19:19.767Z,61.77
2019-02-06T16:22:27.676Z,62.12
2019-02-06T16:25:06.711Z,62.10
2019-02-06T16:28:08.384Z,63.38
2019-02-06T16:31:02.335Z,62.88
2019-02-06T16:33:44.515Z,63.72
2019-02-06T16:36:55.799Z,64.03
2019-02-06T16:39:44.844Z,63.47
2019-02-06T16:42:50.824Z,62.79
2019-02-06T16:46:07.908Z,62.91
2019-02-06T16:49:12.033Z,63.18
2019-02-06T16:52:15.259Z,63.40
2019-02-06T16:55:14.602Z,63.40
2019-02-06T16:58:14.678Z,63.50
2019-02-06T17:01:27.175Z,63.76
2019-02-06T17:04:31.340Z,63.83
2019-02-06T17:07:32.862Z,64.20
2019-02-06T17:10:30.113Z,64.21
2019-02-06T17:13:22.786Z,64.58
2019-02-06T17:16:31.554Z,66.03
2019-02-06T17:19:19.645Z,66.82
2019-02-06T17:22:01.541Z,66.99
2019-02-06T17:25:00.663Z,67.63
2019-02-06T17:28:00.447Z,68.33
2019-02-06T17:30:45.103Z,68.17
2019-02-06T17:33:32.665Z,67.00
2019-02-06T17:36:37.762Z,66.42
2019-02-06T17:39:55.781Z,66.46
2019-02-06T17:42:52.437Z,66.79
2019-02-06T17:45:45.863Z,67.84
2019-02-06T17:48:50.519Z,68.60
2019-02-06T17:51:47.487Z,69.29
2019-02-06T17:54:28.057Z,70.33
2019-02-06T17:56:59.430Z,71.40
2019-02-06T17:59:31.015Z,71.71
2019-02-06T18:02:02.400Z,71.96
2019-02-06T18:04:33.924Z,72.31
2019-02-06T18:07:05.437Z,72.24
2019-02-06T18:09:36.856Z,72.40
2019-02-06T18:12:08.461Z,71.32
2019-02-06T18:14:39.705Z,70.13
2019-02-06T18:17:12.166Z,69.55
2019-02-06T18:19:43.571Z,69.84
2019-02-06T18:22:15.159Z,69.96
2019-02-06T18:24:46.486Z,70.18
2019-02-06T18:27:17.802Z,69.33
2019-02-06T18:29:49.109Z,69.43
2019-02-06T18:32:20.867Z,70.76
2019-02-06T18:34:57.126Z,72.31
2019-02-06T18:37:28.573Z,74.04
2019-02-06T18:40:00.332Z,74.78
2019-02-06T18:42:36.920Z,75.11
2019-02-06T18:45:08.218Z,74.66
2019-02-06T18:47:39.625Z,74.94
2019-02-06T18:50:31.344Z,74.81
2019-02-06T18:53:03.592Z,74.69
2019-02-06T18:55:36.238Z,74.91
2019-02-06T18:58:10.009Z,75.68
2019-02-06T19:00:45.431Z,74.57
2019-02-06T19:03:36.106Z,74.27
2019-02-06T19:06:07.589Z,74.77
2019-02-06T19:08:40.122Z,76.05
2019-02-06T19:11:11.934Z,76.59
2019-02-06T19:13:43.371Z,76.16
2019-02-06T19:16:16.895Z,75.24
2019-02-06T19:18:49.703Z,75.86
2019-02-06T19:21:22.011Z,77.05
2019-02-06T19:23:54.576Z,77.40
2019-02-06T19:26:26.614Z,77.40
2019-02-06T19:28:58.108Z,77.42
2019-02-06T19:31:29.562Z,77.44
2019-02-06T19:34:01.177Z,77.64
2019-02-06T19:36:34.276Z,78.14
2019-02-06T19:39:08.543Z,78.55
2019-02-06T19:41:41.280Z,78.58
2019-02-06T19:44:12.877Z,78.73
2019-02-06T19:46:44.382Z,79.29
2019-02-06T19:49:15.976Z,80.03
2019-02-06T19:51:50.249Z,79.98
2019-02-06T19:54:21.798Z,80.01
2019-02-06T19:56:53.971Z,79.94
2019-02-06T19:59:26.410Z,80.04
2019-02-06T20:01:59.227Z,79.81
2019-02-06T20:04:30.758Z,79.70
2019-02-06T20:07:02.555Z,79.60
2019-02-06T20:09:34.033Z,79.48
2019-02-06T20:12:05.659Z,79.80
2019-02-06T20:14:37.579Z,80.01
2019-02-06T20:17:09.254Z,80.13
2019-02-06T20:19:40.828Z,79.99
2019-02-06T20:22:12.640Z,80.57
2019-02-06T20:24:46.259Z,81.54
2019-02-06T20:27:18.511Z,81.80
2019-02-06T20:29:50.283Z,81.80
2019-02-06T20:32:24.451Z,81.55
2019-02-06T20:34:54.797Z,81.48
2019-02-06T20:37:26.463Z,81.32
2019-02-06T20:39:57.718Z,81.10
2019-02-06T20:42:29.050Z,81.10
2019-02-06T20:45:01.329Z,81.27
2019-02-06T20:47:34.520Z,81.78
2019-02-06T20:50:16.133Z,82.15
2019-02-06T20:52:47.583Z,82.28
2019-02-06T20:55:20.384Z,82.29
2019-02-06T20:57:51.831Z,82.48
2019-02-06T21:00:36.928Z,82.56
2019-02-06T21:03:08.596Z,82.50
2019-02-06T21:05:41.595Z,82.51
2019-02-06T21:08:13.019Z,82.46
2019-02-06T21:10:44.308Z,82.71
2019-02-06T21:13:15.658Z,82.85
2019-02-06T21:15:47.215Z,82.93
2019-02-06T21:18:18.627Z,82.60
2019-02-06T21:20:51.869Z,82.40
2019-02-06T21:23:23.168Z,82.49
2019-02-06T21:25:54.548Z,82.94
2019-02-06T21:28:25.983Z,83.05
2019-02-06T21:30:57.430Z,82.95
2019-02-06T21:33:29.438Z,82.54
2019-02-06T21:36:14.328Z,82.23
2019-02-06T21:38:48.821Z,82.34
2019-02-06T21:41:21.672Z,82.32
2019-02-06T21:43:53.051Z,82.49
2019-02-06T21:46:24.400Z,82.49
2019-02-06T21:48:55.730Z,82.77
2019-02-06T21:51:27.094Z,82.90
2019-02-06T21:53:58.418Z,82.93
2019-02-06T21:56:29.684Z,83.08
2019-02-06T21:59:04.870Z,82.84
2019-02-06T22:01:37.160Z,82.31
2019-02-06T22:04:08.614Z,82.30
2019-02-06T22:06:39.859Z,82.28
2019-02-06T22:09:12.097Z,82.79
2019-02-06T22:11:43.420Z,83.15
2019-02-06T22:14:14.792Z,83.35
2019-02-06T22:16:46.114Z,83.48
2019-02-06T22:19:17.402Z,83.52
2019-02-06T22:21:49.762Z,83.59
2019-02-06T22:24:21.198Z,83.42
2019-02-06T22:26:52.458Z,83.20
2019-02-06T22:29:23.758Z,83.37
2019-02-06T22:31:55.078Z,83.40
2019-02-06T22:34:26.456Z,83.36
2019-02-06T22:36:57.783Z,83.40
2019-02-06T22:39:29.086Z,83.87
2019-02-06T22:42:00.477Z,83.87
2019-02-06T22:44:31.763Z,83.84
2019-02-06T22:47:03.020Z,83.88
2019-02-06T22:49:34.265Z,83.98
2019-02-06T22:52:05.887Z,84.35
2019-02-06T22:54:37.283Z,84.41
2019-02-06T22:57:08.589Z,84.73
2019-02-06T22:59:39.841Z,84.95
2019-02-06T23:02:11.398Z,85.01
2019-02-06T23:04:42.791Z,84.96
2019-02-06T23:07:14.311Z,84.82
2019-02-06T23:09:45.561Z,84.81
2019-02-06T23:12:16.996Z,84.93
2019-02-06T23:14:48.466Z,84.89
2019-02-06T23:17:19.832Z,84.88
2019-02-06T23:19:51.086Z,85.07
2019-02-06T23:22:22.429Z,85.08
2019-02-06T23:24:53.746Z,84.98
2019-02-06T23:27:25.119Z,84.71
2019-02-06T23:29:56.365Z,84.58
2019-02-06T23:32:27.732Z,84.38
2019-02-06T23:34:59.057Z,84.19
2019-02-06T23:37:31.350Z,84.41
2019-02-06T23:40:02.878Z,84.58
2019-02-06T23:42:34.263Z,84.83
2019-02-06T23:45:09.834Z,85.12
2019-02-06T23:47:41.566Z,85.23
2019-02-06T23:50:16.071Z,85.18
2019-02-06T23:52:47.602Z,85.42
2019-02-06T23:55:18.880Z,85.84
2019-02-06T23:57:50.464Z,85.99
